sensor_id;sensor_type;location;lat;lon;timestamp;P1;durP1;ratioP1;P2;durP2;ratioP2
5710;SDS011;61291;52.524;13.422;2023-02-11T00:01:21;87.50;;;78.73;;
5710;SDS011;61291;52.524;13.422;2023-02-11T00:03:50;92.23;;;82.43;;
5710;SDS011;61291;52.524;13.422;2023-02-11T00:06:16;92.30;;;82.90;;
5710;SDS011;61291;52.524;13.422;2023-02-11T00:08:42;94.60;;;85.30;;
5710;SDS011;61291;52.524;13.422;2023-02-11T00:11:09;96.03;;;85.80;;
5710;SDS011;61291;52.524;13.422;2023-02-11T00:13:38;96.27;;;86.60;;
5710;SDS011;61291;52.524;13.422;2023-02-11T00:16:05;101.60;;;85.57;;
5710;SDS011;61291;52.524;13.422;2023-02-11T00:18:32;88.13;;;78.70;;
5710;SDS011;61291;52.524;13.422;2023-02-11T00:20:57;97.97;;;87.40;;
5710;SDS011;61291;52.524;13.422;2023-02-11T00:23:23;92.57;;;82.73;;
5710;SDS011;61291;52.524;13.422;2023-02-11T00:25:48;94.03;;;81.73;;
5710;SDS011;61291;52.524;13.422;2023-02-11T00:28:13;95.23;;;85.80;;
5710;SDS011;61291;52.524;13.422;2023-02-11T00:30:39;92.20;;;82.10;;
5710;SDS011;61291;52.524;13.422;2023-02-11T00:33:05;94.43;;;84.17;;
5710;SDS011;61291;52.524;13.422;2023-02-11T00:35:31;95.20;;;85.10;;
5710;SDS011;61291;52.524;13.422;2023-02-11T00:37:56;84.20;;;75.20;;
5710;SDS011;61291;52.524;13.422;2023-02-11T00:40:22;82.60;;;74.10;;
5710;SDS011;61291;52.524;13.422;2023-02-11T00:42:48;92.80;;;83.13;;
5710;SDS011;61291;52.524;13.422;2023-02-11T00:45:13;94.90;;;85.70;;
5710;SDS011;61291;52.524;13.422;2023-02-11T00:47:39;92.70;;;83.50;;
5710;SDS011;61291;52.524;13.422;2023-02-11T00:50:05;79.22;;;70.72;;
5710;SDS011;61291;52.524;13.422;2023-02-11T00:52:31;79.43;;;70.90;;
5710;SDS011;61291;52.524;13.422;2023-02-11T00:54:57;93.93;;;84.07;;
5710;SDS011;61291;52.524;13.422;2023-02-11T00:57:22;96.00;;;86.03;;
5710;SDS011;61291;52.524;13.422;2023-02-11T00:59:48;92.77;;;83.70;;
5710;SDS011;61291;52.524;13.422;2023-02-11T01:02:14;93.03;;;83.53;;
5710;SDS011;61291;52.524;13.422;2023-02-11T01:04:40;94.87;;;85.20;;
5710;SDS011;61291;52.524;13.422;2023-02-11T01:07:06;89.20;;;79.70;;
5710;SDS011;61291;52.524;13.422;2023-02-11T01:09:31;94.07;;;84.53;;
5710;SDS011;61291;52.524;13.422;2023-02-11T01:11:57;89.03;;;79.53;;
5710;SDS011;61291;52.524;13.422;2023-02-11T01:14:22;84.07;;;75.50;;
5710;SDS011;61291;52.524;13.422;2023-02-11T01:16:49;96.87;;;87.27;;
5710;SDS011;61291;52.524;13.422;2023-02-11T01:19:15;91.30;;;81.70;;
5710;SDS011;61291;52.524;13.422;2023-02-11T01:21:40;91.20;;;82.27;;
5710;SDS011;61291;52.524;13.422;2023-02-11T01:24:06;90.10;;;81.60;;
5710;SDS011;61291;52.524;13.422;2023-02-11T01:26:31;93.80;;;84.40;;
5710;SDS011;61291;52.524;13.422;2023-02-11T01:28:57;93.93;;;83.97;;
5710;SDS011;61291;52.524;13.422;2023-02-11T01:31:24;89.83;;;80.90;;
5710;SDS011;61291;52.524;13.422;2023-02-11T01:33:50;90.23;;;80.80;;
5710;SDS011;61291;52.524;13.422;2023-02-11T01:36:16;89.90;;;81.30;;
5710;SDS011;61291;52.524;13.422;2023-02-11T01:38:41;88.70;;;80.47;;
5710;SDS011;61291;52.524;13.422;2023-02-11T01:41:09;89.87;;;80.47;;
5710;SDS011;61291;52.524;13.422;2023-02-11T01:43:38;93.37;;;83.93;;
5710;SDS011;61291;52.524;13.422;2023-02-11T01:46:17;93.67;;;84.17;;
5710;SDS011;61291;52.524;13.422;2023-02-11T01:48:46;92.40;;;83.40;;
5710;SDS011;61291;52.524;13.422;2023-02-11T01:51:17;95.40;;;85.97;;
5710;SDS011;61291;52.524;13.422;2023-02-11T01:53:49;90.50;;;81.30;;
5710;SDS011;61291;52.524;13.422;2023-02-11T01:56:35;93.77;;;84.07;;
5710;SDS011;61291;52.524;13.422;2023-02-11T01:59:27;96.23;;;87.00;;
5710;SDS011;61291;52.524;13.422;2023-02-11T02:02:28;94.47;;;84.83;;
5710;SDS011;61291;52.524;13.422;2023-02-11T02:07:58;88.60;;;79.50;;
5710;SDS011;61291;52.524;13.422;2023-02-11T02:10:30;89.93;;;81.33;;
5710;SDS011;61291;52.524;13.422;2023-02-11T02:12:59;90.03;;;81.30;;
5710;SDS011;61291;52.524;13.422;2023-02-11T02:15:36;94.13;;;83.97;;
5710;SDS011;61291;52.524;13.422;2023-02-11T02:21:12;97.10;;;87.50;;
5710;SDS011;61291;52.524;13.422;2023-02-11T02:26:35;88.37;;;79.70;;
5710;SDS011;61291;52.524;13.422;2023-02-11T02:35:09;97.50;;;88.20;;
5710;SDS011;61291;52.524;13.422;2023-02-11T02:38:06;92.13;;;83.33;;
5710;SDS011;61291;52.524;13.422;2023-02-11T02:40:40;93.40;;;83.30;;
5710;SDS011;61291;52.524;13.422;2023-02-11T02:43:10;80.97;;;72.07;;
5710;SDS011;61291;52.524;13.422;2023-02-11T02:45:37;97.10;;;87.57;;
5710;SDS011;61291;52.524;13.422;2023-02-11T02:48:03;99.90;;;89.67;;
5710;SDS011;61291;52.524;13.422;2023-02-11T02:50:29;95.37;;;86.13;;
5710;SDS011;61291;52.524;13.422;2023-02-11T02:53:07;95.27;;;85.13;;
5710;SDS011;61291;52.524;13.422;2023-02-11T02:56:32;98.37;;;88.53;;
5710;SDS011;61291;52.524;13.422;2023-02-11T02:58:49;99.07;;;88.63;;
5710;SDS011;61291;52.524;13.422;2023-02-11T03:01:32;99.00;;;89.10;;
5710;SDS011;61291;52.524;13.422;2023-02-11T03:04:28;94.83;;;85.30;;
5710;SDS011;61291;52.524;13.422;2023-02-11T03:07:24;91.60;;;82.50;;
5710;SDS011;61291;52.524;13.422;2023-02-11T03:10:30;91.60;;;82.53;;
5710;SDS011;61291;52.524;13.422;2023-02-11T03:12:58;94.30;;;84.57;;
5710;SDS011;61291;52.524;13.422;2023-02-11T03:15:26;93.97;;;83.83;;
5710;SDS011;61291;52.524;13.422;2023-02-11T03:17:55;97.23;;;87.20;;
5710;SDS011;61291;52.524;13.422;2023-02-11T03:20:24;92.30;;;83.30;;
5710;SDS011;61291;52.524;13.422;2023-02-11T03:22:57;93.83;;;84.30;;
5710;SDS011;61291;52.524;13.422;2023-02-11T03:25:31;94.57;;;84.83;;
5710;SDS011;61291;52.524;13.422;2023-02-11T03:28:09;98.03;;;86.67;;
5710;SDS011;61291;52.524;13.422;2023-02-11T03:30:48;95.23;;;85.40;;
5710;SDS011;61291;52.524;13.422;2023-02-11T03:35:53;93.87;;;84.57;;
5710;SDS011;61291;52.524;13.422;2023-02-11T03:38:25;91.70;;;82.27;;
5710;SDS011;61291;52.524;13.422;2023-02-11T03:40:57;100.03;;;89.90;;
5710;SDS011;61291;52.524;13.422;2023-02-11T03:43:27;95.17;;;85.20;;
5710;SDS011;61291;52.524;13.422;2023-02-11T03:45:59;95.60;;;85.93;;
5710;SDS011;61291;52.524;13.422;2023-02-11T03:48:28;95.53;;;86.13;;
5710;SDS011;61291;52.524;13.422;2023-02-11T03:51:00;96.03;;;85.87;;
5710;SDS011;61291;52.524;13.422;2023-02-11T03:53:29;101.00;;;90.80;;
5710;SDS011;61291;52.524;13.422;2023-02-11T03:55:55;99.53;;;89.30;;
5710;SDS011;61291;52.524;13.422;2023-02-11T03:58:22;96.17;;;86.43;;
5710;SDS011;61291;52.524;13.422;2023-02-11T04:00:48;92.03;;;82.07;;
5710;SDS011;61291;52.524;13.422;2023-02-11T04:03:13;101.27;;;91.47;;
5710;SDS011;61291;52.524;13.422;2023-02-11T04:05:39;101.80;;;90.70;;
5710;SDS011;61291;52.524;13.422;2023-02-11T04:08:05;99.13;;;89.30;;
5710;SDS011;61291;52.524;13.422;2023-02-11T04:10:30;98.17;;;88.13;;
5710;SDS011;61291;52.524;13.422;2023-02-11T04:12:56;102.70;;;92.30;;
5710;SDS011;61291;52.524;13.422;2023-02-11T04:15:22;98.20;;;88.10;;
5710;SDS011;61291;52.524;13.422;2023-02-11T04:17:48;102.10;;;91.70;;
5710;SDS011;61291;52.524;13.422;2023-02-11T04:20:13;102.20;;;91.30;;
5710;SDS011;61291;52.524;13.422;2023-02-11T04:22:39;100.07;;;89.83;;
5710;SDS011;61291;52.524;13.422;2023-02-11T04:25:05;100.00;;;89.97;;
5710;SDS011;61291;52.524;13.422;2023-02-11T04:27:31;106.63;;;90.80;;
5710;SDS011;61291;52.524;13.422;2023-02-11T04:29:56;99.80;;;89.17;;
5710;SDS011;61291;52.524;13.422;2023-02-11T04:32:22;101.57;;;90.50;;
5710;SDS011;61291;52.524;13.422;2023-02-11T04:34:47;99.80;;;89.17;;
5710;SDS011;61291;52.524;13.422;2023-02-11T04:37:13;98.60;;;88.57;;
5710;SDS011;61291;52.524;13.422;2023-02-11T04:39:38;100.40;;;89.67;;
5710;SDS011;61291;52.524;13.422;2023-02-11T04:42:04;100.13;;;90.20;;
5710;SDS011;61291;52.524;13.422;2023-02-11T04:44:30;105.80;;;93.00;;
5710;SDS011;61291;52.524;13.422;2023-02-11T04:46:55;105.73;;;93.33;;
5710;SDS011;61291;52.524;13.422;2023-02-11T04:49:21;104.07;;;90.43;;
5710;SDS011;61291;52.524;13.422;2023-02-11T04:51:46;102.90;;;92.47;;
5710;SDS011;61291;52.524;13.422;2023-02-11T04:54:12;109.03;;;97.43;;
5710;SDS011;61291;52.524;13.422;2023-02-11T04:56:37;100.10;;;89.43;;
5710;SDS011;61291;52.524;13.422;2023-02-11T04:59:03;102.07;;;91.57;;
5710;SDS011;61291;52.524;13.422;2023-02-11T05:01:29;104.07;;;93.20;;
5710;SDS011;61291;52.524;13.422;2023-02-11T05:03:54;105.23;;;93.80;;
5710;SDS011;61291;52.524;13.422;2023-02-11T05:06:20;104.27;;;93.03;;
5710;SDS011;61291;52.524;13.422;2023-02-11T05:08:45;105.57;;;94.00;;
5710;SDS011;61291;52.524;13.422;2023-02-11T05:11:13;115.37;;;93.50;;
5710;SDS011;61291;52.524;13.422;2023-02-11T05:13:42;101.70;;;90.80;;
5710;SDS011;61291;52.524;13.422;2023-02-11T05:16:07;103.47;;;92.40;;
5710;SDS011;61291;52.524;13.422;2023-02-11T05:18:33;102.80;;;92.10;;
5710;SDS011;61291;52.524;13.422;2023-02-11T05:21:04;101.13;;;90.20;;
5710;SDS011;61291;52.524;13.422;2023-02-11T05:23:33;104.30;;;90.47;;
5710;SDS011;61291;52.524;13.422;2023-02-11T05:26:00;100.67;;;89.87;;
5710;SDS011;61291;52.524;13.422;2023-02-11T05:28:26;103.50;;;92.20;;
5710;SDS011;61291;52.524;13.422;2023-02-11T05:30:52;114.17;;;85.13;;
5710;SDS011;61291;52.524;13.422;2023-02-11T05:33:17;105.87;;;94.37;;
5710;SDS011;61291;52.524;13.422;2023-02-11T05:35:43;99.70;;;89.10;;
5710;SDS011;61291;52.524;13.422;2023-02-11T05:38:08;103.40;;;92.13;;
5710;SDS011;61291;52.524;13.422;2023-02-11T05:40:34;106.80;;;93.20;;
5710;SDS011;61291;52.524;13.422;2023-02-11T05:43:00;109.20;;;91.30;;
5710;SDS011;61291;52.524;13.422;2023-02-11T05:45:25;108.33;;;91.17;;
5710;SDS011;61291;52.524;13.422;2023-02-11T05:47:51;106.47;;;94.53;;
5710;SDS011;61291;52.524;13.422;2023-02-11T05:50:17;105.53;;;91.77;;
5710;SDS011;61291;52.524;13.422;2023-02-11T05:52:42;109.77;;;97.70;;
5710;SDS011;61291;52.524;13.422;2023-02-11T05:55:08;106.40;;;91.57;;
5710;SDS011;61291;52.524;13.422;2023-02-11T05:57:34;116.37;;;92.27;;
5710;SDS011;61291;52.524;13.422;2023-02-11T05:59:59;106.63;;;93.93;;
5710;SDS011;61291;52.524;13.422;2023-02-11T06:02:24;106.57;;;95.00;;
5710;SDS011;61291;52.524;13.422;2023-02-11T06:04:50;103.50;;;90.50;;
5710;SDS011;61291;52.524;13.422;2023-02-11T06:07:16;111.23;;;95.70;;
5710;SDS011;61291;52.524;13.422;2023-02-11T06:09:41;105.57;;;88.90;;
5710;SDS011;61291;52.524;13.422;2023-02-11T06:12:07;117.53;;;102.77;;
5710;SDS011;61291;52.524;13.422;2023-02-11T06:14:32;111.40;;;98.90;;
5710;SDS011;61291;52.524;13.422;2023-02-11T06:16:58;118.20;;;102.00;;
5710;SDS011;61291;52.524;13.422;2023-02-11T06:19:24;110.43;;;95.13;;
5710;SDS011;61291;52.524;13.422;2023-02-11T06:21:49;109.93;;;94.80;;
5710;SDS011;61291;52.524;13.422;2023-02-11T06:24:15;108.07;;;88.73;;
5710;SDS011;61291;52.524;13.422;2023-02-11T06:26:40;113.03;;;95.67;;
5710;SDS011;61291;52.524;13.422;2023-02-11T06:29:06;124.03;;;98.87;;
5710;SDS011;61291;52.524;13.422;2023-02-11T06:31:31;115.03;;;94.80;;
5710;SDS011;61291;52.524;13.422;2023-02-11T06:33:57;111.60;;;95.90;;
5710;SDS011;61291;52.524;13.422;2023-02-11T06:36:23;111.33;;;92.03;;
5710;SDS011;61291;52.524;13.422;2023-02-11T06:38:49;124.47;;;98.40;;
5710;SDS011;61291;52.524;13.422;2023-02-11T06:41:16;129.27;;;96.80;;
5710;SDS011;61291;52.524;13.422;2023-02-11T06:43:46;116.30;;;98.50;;
5710;SDS011;61291;52.524;13.422;2023-02-11T06:46:12;110.00;;;94.70;;
5710;SDS011;61291;52.524;13.422;2023-02-11T06:48:37;120.77;;;97.90;;
5710;SDS011;61291;52.524;13.422;2023-02-11T06:51:03;126.40;;;99.77;;
5710;SDS011;61291;52.524;13.422;2023-02-11T06:53:33;122.23;;;96.70;;
5710;SDS011;61291;52.524;13.422;2023-02-11T06:56:03;122.73;;;102.07;;
5710;SDS011;61291;52.524;13.422;2023-02-11T06:58:30;121.93;;;105.87;;
5710;SDS011;61291;52.524;13.422;2023-02-11T07:00:56;117.00;;;99.77;;
5710;SDS011;61291;52.524;13.422;2023-02-11T07:03:21;123.17;;;101.83;;
5710;SDS011;61291;52.524;13.422;2023-02-11T07:05:47;120.33;;;99.10;;
5710;SDS011;61291;52.524;13.422;2023-02-11T07:08:12;114.63;;;101.13;;
5710;SDS011;61291;52.524;13.422;2023-02-11T07:10:37;119.13;;;101.97;;
5710;SDS011;61291;52.524;13.422;2023-02-11T07:13:03;122.03;;;107.27;;
5710;SDS011;61291;52.524;13.422;2023-02-11T07:15:29;125.90;;;102.57;;
5710;SDS011;61291;52.524;13.422;2023-02-11T07:17:54;123.90;;;99.90;;
5710;SDS011;61291;52.524;13.422;2023-02-11T07:20:20;120.73;;;99.97;;
5710;SDS011;61291;52.524;13.422;2023-02-11T07:22:45;116.80;;;94.70;;
5710;SDS011;61291;52.524;13.422;2023-02-11T07:25:11;118.77;;;101.73;;
5710;SDS011;61291;52.524;13.422;2023-02-11T07:27:36;127.47;;;99.80;;
5710;SDS011;61291;52.524;13.422;2023-02-11T07:30:02;127.60;;;97.22;;
5710;SDS011;61291;52.524;13.422;2023-02-11T07:32:29;126.13;;;104.03;;
5710;SDS011;61291;52.524;13.422;2023-02-11T07:34:54;132.23;;;105.23;;
5710;SDS011;61291;52.524;13.422;2023-02-11T07:37:21;123.60;;;100.80;;
5710;SDS011;61291;52.524;13.422;2023-02-11T07:39:47;126.50;;;105.87;;
5710;SDS011;61291;52.524;13.422;2023-02-11T07:42:13;118.60;;;102.57;;
5710;SDS011;61291;52.524;13.422;2023-02-11T07:44:39;123.87;;;109.97;;
5710;SDS011;61291;52.524;13.422;2023-02-11T07:47:05;127.13;;;107.97;;
5710;SDS011;61291;52.524;13.422;2023-02-11T07:49:30;131.47;;;108.83;;
5710;SDS011;61291;52.524;13.422;2023-02-11T07:51:56;121.77;;;107.17;;
5710;SDS011;61291;52.524;13.422;2023-02-11T07:54:21;120.40;;;107.20;;
5710;SDS011;61291;52.524;13.422;2023-02-11T07:56:47;121.30;;;108.60;;
5710;SDS011;61291;52.524;13.422;2023-02-11T07:59:12;121.10;;;93.87;;
5710;SDS011;61291;52.524;13.422;2023-02-11T08:01:38;109.13;;;87.93;;
5710;SDS011;61291;52.524;13.422;2023-02-11T08:04:06;117.63;;;99.23;;
5710;SDS011;61291;52.524;13.422;2023-02-11T08:06:32;114.73;;;98.83;;
5710;SDS011;61291;52.524;13.422;2023-02-11T08:09:03;108.07;;;94.23;;
5710;SDS011;61291;52.524;13.422;2023-02-11T08:11:31;101.47;;;84.50;;
5710;SDS011;61291;52.524;13.422;2023-02-11T08:13:57;118.20;;;93.60;;
5710;SDS011;61291;52.524;13.422;2023-02-11T08:16:24;108.70;;;95.83;;
5710;SDS011;61291;52.524;13.422;2023-02-11T08:18:58;119.03;;;97.30;;
5710;SDS011;61291;52.524;13.422;2023-02-11T08:21:26;109.77;;;92.60;;
5710;SDS011;61291;52.524;13.422;2023-02-11T08:23:52;113.77;;;95.47;;
5710;SDS011;61291;52.524;13.422;2023-02-11T08:26:19;117.73;;;94.53;;
5710;SDS011;61291;52.524;13.422;2023-02-11T08:28:46;122.20;;;101.43;;
5710;SDS011;61291;52.524;13.422;2023-02-11T08:31:14;117.23;;;92.93;;
5710;SDS011;61291;52.524;13.422;2023-02-11T08:33:42;119.13;;;99.47;;
5710;SDS011;61291;52.524;13.422;2023-02-11T08:36:11;130.17;;;100.23;;
5710;SDS011;61291;52.524;13.422;2023-02-11T08:38:41;110.20;;;98.37;;
5710;SDS011;61291;52.524;13.422;2023-02-11T08:41:08;113.10;;;100.80;;
5710;SDS011;61291;52.524;13.422;2023-02-11T08:43:34;118.47;;;97.10;;
5710;SDS011;61291;52.524;13.422;2023-02-11T08:46:00;113.37;;;97.23;;
5710;SDS011;61291;52.524;13.422;2023-02-11T08:48:26;116.13;;;97.10;;
5710;SDS011;61291;52.524;13.422;2023-02-11T08:50:53;111.90;;;99.87;;
5710;SDS011;61291;52.524;13.422;2023-02-11T08:53:19;111.83;;;95.87;;
5710;SDS011;61291;52.524;13.422;2023-02-11T08:55:48;115.87;;;101.90;;
5710;SDS011;61291;52.524;13.422;2023-02-11T08:58:18;113.43;;;94.20;;
5710;SDS011;61291;52.524;13.422;2023-02-11T09:00:43;112.73;;;94.63;;
5710;SDS011;61291;52.524;13.422;2023-02-11T09:03:10;107.83;;;88.83;;
5710;SDS011;61291;52.524;13.422;2023-02-11T09:05:46;110.40;;;89.20;;
5710;SDS011;61291;52.524;13.422;2023-02-11T09:08:14;105.07;;;87.50;;
5710;SDS011;61291;52.524;13.422;2023-02-11T09:10:40;103.97;;;92.50;;
5710;SDS011;61291;52.524;13.422;2023-02-11T09:13:05;110.00;;;87.30;;
5710;SDS011;61291;52.524;13.422;2023-02-11T09:15:31;105.47;;;89.50;;
5710;SDS011;61291;52.524;13.422;2023-02-11T09:17:57;94.53;;;83.23;;
5710;SDS011;61291;52.524;13.422;2023-02-11T09:20:23;115.03;;;86.77;;
5710;SDS011;61291;52.524;13.422;2023-02-11T09:22:50;115.80;;;88.43;;
5710;SDS011;61291;52.524;13.422;2023-02-11T09:25:16;105.53;;;84.00;;
5710;SDS011;61291;52.524;13.422;2023-02-11T09:27:41;107.33;;;84.30;;
5710;SDS011;61291;52.524;13.422;2023-02-11T09:30:07;102.73;;;86.17;;
5710;SDS011;61291;52.524;13.422;2023-02-11T09:32:33;102.87;;;82.27;;
5710;SDS011;61291;52.524;13.422;2023-02-11T09:34:58;95.10;;;81.17;;
5710;SDS011;61291;52.524;13.422;2023-02-11T09:37:24;100.77;;;82.57;;
5710;SDS011;61291;52.524;13.422;2023-02-11T09:39:49;94.43;;;77.90;;
5710;SDS011;61291;52.524;13.422;2023-02-11T09:45:03;90.10;;;78.53;;
5710;SDS011;61291;52.524;13.422;2023-02-11T09:47:35;98.93;;;77.38;;
5710;SDS011;61291;52.524;13.422;2023-02-11T09:50:12;103.83;;;83.33;;
5710;SDS011;61291;52.524;13.422;2023-02-11T09:52:53;100.93;;;87.10;;
5710;SDS011;61291;52.524;13.422;2023-02-11T09:55:42;94.23;;;81.10;;
5710;SDS011;61291;52.524;13.422;2023-02-11T09:58:44;97.43;;;82.00;;
5710;SDS011;61291;52.524;13.422;2023-02-11T10:06:48;98.90;;;85.30;;
5710;SDS011;61291;52.524;13.422;2023-02-11T10:14:53;101.13;;;78.40;;
5710;SDS011;61291;52.524;13.422;2023-02-11T10:17:50;93.27;;;79.00;;
5710;SDS011;61291;52.524;13.422;2023-02-11T10:20:33;100.03;;;78.50;;
5710;SDS011;61291;52.524;13.422;2023-02-11T10:23:07;102.70;;;91.50;;
5710;SDS011;61291;52.524;13.422;2023-02-11T10:25:41;100.00;;;82.97;;
5710;SDS011;61291;52.524;13.422;2023-02-11T10:28:13;106.40;;;83.97;;
5710;SDS011;61291;52.524;13.422;2023-02-11T10:30:48;97.17;;;85.57;;
5710;SDS011;61291;52.524;13.422;2023-02-11T10:33:36;106.77;;;87.97;;
5710;SDS011;61291;52.524;13.422;2023-02-11T10:36:18;92.77;;;82.97;;
5710;SDS011;61291;52.524;13.422;2023-02-11T10:38:44;106.03;;;86.67;;
5710;SDS011;61291;52.524;13.422;2023-02-11T10:41:16;105.13;;;88.10;;
5710;SDS011;61291;52.524;13.422;2023-02-11T10:43:46;101.27;;;85.77;;
5710;SDS011;61291;52.524;13.422;2023-02-11T10:46:16;113.10;;;86.57;;
5710;SDS011;61291;52.524;13.422;2023-02-11T10:48:47;113.77;;;86.00;;
5710;SDS011;61291;52.524;13.422;2023-02-11T10:56:29;93.63;;;82.40;;
5710;SDS011;61291;52.524;13.422;2023-02-11T10:59:01;105.53;;;86.30;;
5710;SDS011;61291;52.524;13.422;2023-02-11T11:01:42;107.60;;;87.13;;
5710;SDS011;61291;52.524;13.422;2023-02-11T11:05:13;96.63;;;86.60;;
5710;SDS011;61291;52.524;13.422;2023-02-11T11:07:17;99.47;;;88.87;;
5710;SDS011;61291;52.524;13.422;2023-02-11T11:09:47;102.73;;;88.87;;
5710;SDS011;61291;52.524;13.422;2023-02-11T11:12:24;99.47;;;88.47;;
5710;SDS011;61291;52.524;13.422;2023-02-11T11:14:57;97.63;;;79.63;;
5710;SDS011;61291;52.524;13.422;2023-02-11T11:17:25;110.13;;;92.30;;
5710;SDS011;61291;52.524;13.422;2023-02-11T11:22:51;102.37;;;81.50;;
5710;SDS011;61291;52.524;13.422;2023-02-11T11:25:41;101.53;;;82.07;;
5710;SDS011;61291;52.524;13.422;2023-02-11T11:28:21;109.40;;;82.47;;
5710;SDS011;61291;52.524;13.422;2023-02-11T11:30:48;107.10;;;84.83;;
5710;SDS011;61291;52.524;13.422;2023-02-11T11:33:24;92.30;;;81.80;;
5710;SDS011;61291;52.524;13.422;2023-02-11T11:36:08;97.27;;;83.87;;
5710;SDS011;61291;52.524;13.422;2023-02-11T11:38:55;105.63;;;84.17;;
5710;SDS011;61291;52.524;13.422;2023-02-11T11:41:25;92.27;;;81.67;;
5710;SDS011;61291;52.524;13.422;2023-02-11T11:46:31;100.63;;;89.03;;
5710;SDS011;61291;52.524;13.422;2023-02-11T11:49:08;100.87;;;87.67;;
5710;SDS011;61291;52.524;13.422;2023-02-11T11:51:36;92.93;;;79.47;;
5710;SDS011;61291;52.524;13.422;2023-02-11T11:54:10;86.23;;;77.20;;
5710;SDS011;61291;52.524;13.422;2023-02-11T11:56:44;87.90;;;77.77;;
5710;SDS011;61291;52.524;13.422;2023-02-11T11:59:14;93.97;;;82.27;;
5710;SDS011;61291;52.524;13.422;2023-02-11T12:04:16;87.93;;;78.70;;
5710;SDS011;61291;52.524;13.422;2023-02-11T12:09:53;75.47;;;63.78;;
5710;SDS011;61291;52.524;13.422;2023-02-11T12:12:37;75.03;;;63.60;;
5710;SDS011;61291;52.524;13.422;2023-02-11T12:15:22;85.50;;;76.57;;
5710;SDS011;61291;52.524;13.422;2023-02-11T12:23:48;76.03;;;68.47;;
5710;SDS011;61291;52.524;13.422;2023-02-11T12:26:38;80.73;;;72.90;;
5710;SDS011;61291;52.524;13.422;2023-02-11T12:29:19;78.63;;;70.23;;
5710;SDS011;61291;52.524;13.422;2023-02-11T12:32:16;78.47;;;70.80;;
5710;SDS011;61291;52.524;13.422;2023-02-11T12:35:05;80.03;;;72.47;;
5710;SDS011;61291;52.524;13.422;2023-02-11T12:38:10;77.10;;;69.60;;
5710;SDS011;61291;52.524;13.422;2023-02-11T12:44:06;66.78;;;59.20;;
5710;SDS011;61291;52.524;13.422;2023-02-11T12:46:42;77.67;;;70.40;;
5710;SDS011;61291;52.524;13.422;2023-02-11T12:51:48;78.83;;;71.20;;
5710;SDS011;61291;52.524;13.422;2023-02-11T12:54:41;75.30;;;67.47;;
5710;SDS011;61291;52.524;13.422;2023-02-11T12:59:59;79.33;;;72.07;;
5710;SDS011;61291;52.524;13.422;2023-02-11T13:03:05;78.27;;;70.97;;
5710;SDS011;61291;52.524;13.422;2023-02-11T13:05:37;74.80;;;67.53;;
5710;SDS011;61291;52.524;13.422;2023-02-11T13:10:54;77.57;;;70.30;;
5710;SDS011;61291;52.524;13.422;2023-02-11T13:13:38;84.27;;;75.20;;
5710;SDS011;61291;52.524;13.422;2023-02-11T13:16:22;79.77;;;72.47;;
5710;SDS011;61291;52.524;13.422;2023-02-11T13:19:14;77.40;;;70.80;;
5710;SDS011;61291;52.524;13.422;2023-02-11T13:27:07;69.73;;;62.87;;
5710;SDS011;61291;52.524;13.422;2023-02-11T13:30:02;79.60;;;72.70;;
5710;SDS011;61291;52.524;13.422;2023-02-11T13:35:26;72.07;;;65.87;;
5710;SDS011;61291;52.524;13.422;2023-02-11T13:38:00;76.70;;;70.10;;
5710;SDS011;61291;52.524;13.422;2023-02-11T13:40:37;71.27;;;65.27;;
5710;SDS011;61291;52.524;13.422;2023-02-11T13:43:04;78.87;;;72.13;;
5710;SDS011;61291;52.524;13.422;2023-02-11T13:45:43;84.63;;;77.67;;
5710;SDS011;61291;52.524;13.422;2023-02-11T13:51:04;83.83;;;76.00;;
5710;SDS011;61291;52.524;13.422;2023-02-11T13:53:55;81.07;;;74.00;;
5710;SDS011;61291;52.524;13.422;2023-02-11T13:56:34;75.20;;;68.30;;
5710;SDS011;61291;52.524;13.422;2023-02-11T14:04:45;78.90;;;72.30;;
5710;SDS011;61291;52.524;13.422;2023-02-11T14:10:50;71.33;;;64.80;;
5710;SDS011;61291;52.524;13.422;2023-02-11T14:13:34;79.30;;;71.53;;
5710;SDS011;61291;52.524;13.422;2023-02-11T14:16:21;80.57;;;73.57;;
5710;SDS011;61291;52.524;13.422;2023-02-11T14:24:39;73.43;;;66.90;;
5710;SDS011;61291;52.524;13.422;2023-02-11T14:26:49;64.03;;;57.33;;
5710;SDS011;61291;52.524;13.422;2023-02-11T14:29:36;73.87;;;66.87;;
5710;SDS011;61291;52.524;13.422;2023-02-11T14:34:59;70.90;;;64.50;;
5710;SDS011;61291;52.524;13.422;2023-02-11T14:37:52;66.83;;;61.03;;
5710;SDS011;61291;52.524;13.422;2023-02-11T14:40:24;73.90;;;67.53;;
5710;SDS011;61291;52.524;13.422;2023-02-11T14:42:59;69.73;;;63.57;;
5710;SDS011;61291;52.524;13.422;2023-02-11T14:45:33;76.57;;;69.77;;
5710;SDS011;61291;52.524;13.422;2023-02-11T14:48:04;72.67;;;66.37;;
5710;SDS011;61291;52.524;13.422;2023-02-11T14:50:56;71.70;;;65.00;;
5710;SDS011;61291;52.524;13.422;2023-02-11T14:53:26;68.43;;;61.73;;
5710;SDS011;61291;52.524;13.422;2023-02-11T14:55:54;69.97;;;63.10;;
5710;SDS011;61291;52.524;13.422;2023-02-11T14:58:20;69.50;;;63.70;;
5710;SDS011;61291;52.524;13.422;2023-02-11T15:01:04;72.60;;;65.90;;
5710;SDS011;61291;52.524;13.422;2023-02-11T15:03:47;63.92;;;57.83;;
5710;SDS011;61291;52.524;13.422;2023-02-11T15:06:20;71.57;;;65.20;;
5710;SDS011;61291;52.524;13.422;2023-02-11T15:08:49;69.23;;;63.27;;
5710;SDS011;61291;52.524;13.422;2023-02-11T15:11:18;65.55;;;60.05;;
5710;SDS011;61291;52.524;13.422;2023-02-11T15:13:46;64.37;;;59.10;;
5710;SDS011;61291;52.524;13.422;2023-02-11T15:16:15;67.70;;;61.70;;
5710;SDS011;61291;52.524;13.422;2023-02-11T15:18:45;63.97;;;58.77;;
5710;SDS011;61291;52.524;13.422;2023-02-11T15:21:25;62.40;;;56.77;;
5710;SDS011;61291;52.524;13.422;2023-02-11T15:24:00;64.13;;;58.47;;
5710;SDS011;61291;52.524;13.422;2023-02-11T15:26:30;64.80;;;58.87;;
5710;SDS011;61291;52.524;13.422;2023-02-11T15:28:57;68.20;;;62.13;;
5710;SDS011;61291;52.524;13.422;2023-02-11T15:31:24;66.17;;;60.53;;
5710;SDS011;61291;52.524;13.422;2023-02-11T15:33:51;63.63;;;58.50;;
5710;SDS011;61291;52.524;13.422;2023-02-11T15:36:20;62.40;;;57.20;;
5710;SDS011;61291;52.524;13.422;2023-02-11T15:41:41;61.17;;;56.07;;
5710;SDS011;61291;52.524;13.422;2023-02-11T15:44:24;64.13;;;58.90;;
5710;SDS011;61291;52.524;13.422;2023-02-11T15:46:52;63.50;;;57.90;;
5710;SDS011;61291;52.524;13.422;2023-02-11T15:49:18;53.13;;;48.05;;
5710;SDS011;61291;52.524;13.422;2023-02-11T15:51:45;67.63;;;61.10;;
5710;SDS011;61291;52.524;13.422;2023-02-11T15:54:21;65.63;;;59.97;;
5710;SDS011;61291;52.524;13.422;2023-02-11T15:56:51;65.73;;;59.40;;
5710;SDS011;61291;52.524;13.422;2023-02-11T15:59:26;62.60;;;57.50;;
5710;SDS011;61291;52.524;13.422;2023-02-11T16:02:04;68.70;;;61.63;;
5710;SDS011;61291;52.524;13.422;2023-02-11T16:04:48;62.47;;;56.53;;
5710;SDS011;61291;52.524;13.422;2023-02-11T16:07:37;63.33;;;57.63;;
5710;SDS011;61291;52.524;13.422;2023-02-11T16:12:51;60.30;;;55.70;;
5710;SDS011;61291;52.524;13.422;2023-02-11T16:16:18;57.03;;;51.70;;
5710;SDS011;61291;52.524;13.422;2023-02-11T16:20:47;54.90;;;50.70;;